Time;durP1;ratioP1;P1;durP2;ratioP2;P2;SDS_P1;SDS_P2;PMS_P1;PMS_P2;Temp;Humidity;BMP_temperature;BMP_pressure;BME280_temperature;BME280_humidity;BME280_pressure;Samples;Min_cycle;Max_cycle;Signal;HPM_P1;HPM_P2
2022/01/21 00:02:15;;;;;;;5.90;2.33;;;;;;;;;;5025772;28;20030;-74
2022/01/21 00:04:40;;;;;;;5.93;1.98;;;;;;;;;;5028307;28;20075;-74
2022/01/21 00:07:06;;;;;;;3.08;2.15;;;;;;;;;;5012412;28;20068;-74
2022/01/21 00:09:31;;;;;;;4.88;2.30;;;;;;;;;;5029385;28;20021;-74
2022/01/21 00:11:56;;;;;;;8.65;2.30;;;;;;;;;;5027330;28;20091;-74
2022/01/21 00:14:22;;;;;;;4.07;1.65;;;;;;;;;;5009166;28;20061;-74
2022/01/21 00:16:48;;;;;;;5.80;2.28;;;;;;;;;;5027923;28;20049;-74
2022/01/21 00:19:16;;;;;;;8.02;2.50;;;;;;;;;;5012010;28;20115;-74
2022/01/21 00:32:36;;;;;;;4.93;2.40;;;;;;;;;;5011833;28;20545;-74
2022/01/21 00:35:02;;;;;;;7.68;2.33;;;;;;;;;;5029448;28;20025;-74
2022/01/21 00:37:27;;;;;;;7.63;2.00;;;;;;;;;;5010900;28;20488;-74
2022/01/21 00:39:56;;;;;;;5.22;1.65;;;;;;;;;;5028950;28;20069;-74
2022/01/21 00:44:49;;;;;;;4.75;2.20;;;;;;;;;;5010532;28;20101;-74
2022/01/21 00:47:14;;;;;;;7.20;2.50;;;;;;;;;;5011182;28;20116;-74
2022/01/21 00:49:39;;;;;;;6.18;2.47;;;;;;;;;;5002168;28;20231;-74
2022/01/21 00:52:05;;;;;;;5.82;2.40;;;;;;;;;;5028132;28;20064;-74
2022/01/21 00:54:30;;;;;;;5.10;2.45;;;;;;;;;;5026432;28;20056;-74
2022/01/21 00:56:55;;;;;;;8.43;2.53;;;;;;;;;;5010761;28;20056;-74
2022/01/21 00:59:21;;;;;;;4.82;1.83;;;;;;;;;;5010936;28;20061;-74
2022/01/21 01:01:46;;;;;;;2.90;1.90;;;;;;;;;;5009209;28;20041;-74
2022/01/21 01:04:11;;;;;;;8.48;2.30;;;;;;;;;;5027925;28;20099;-74
2022/01/21 01:06:36;;;;;;;5.32;2.20;;;;;;;;;;5027589;28;20029;-74
2022/01/21 01:09:02;;;;;;;6.78;2.60;;;;;;;;;;5010509;28;20033;-74
2022/01/21 01:20:00;;;;;;;10.68;2.05;;;;;;;;;;5027509;28;20040;-74
2022/01/21 01:22:42;;;;;;;5.35;2.63;;;;;;;;;;5014453;28;20129;-74
2022/01/21 01:27:54;;;;;;;4.90;2.38;;;;;;;;;;5012726;28;20510;-74
2022/01/21 01:30:23;;;;;;;4.53;2.13;;;;;;;;;;5005293;28;20040;-74
2022/01/21 01:32:49;;;;;;;6.13;2.60;;;;;;;;;;4994821;28;20053;-74
2022/01/21 01:35:16;;;;;;;7.30;2.05;;;;;;;;;;5010350;28;20134;-74
2022/01/21 01:38:09;;;;;;;9.13;2.65;;;;;;;;;;5009661;28;20438;-74
2022/01/21 01:50:55;;;;;;;8.45;2.17;;;;;;;;;;5008832;28;20033;-74
2022/01/21 01:53:27;;;;;;;7.65;2.90;;;;;;;;;;5007972;28;20905;-74
2022/01/21 01:55:53;;;;;;;5.85;2.35;;;;;;;;;;5009665;28;20112;-74
2022/01/21 01:58:18;;;;;;;9.70;2.53;;;;;;;;;;5010002;28;20108;-74
2022/01/21 02:00:43;;;;;;;7.85;2.60;;;;;;;;;;5026329;28;20041;-74
2022/01/21 02:03:10;;;;;;;3.80;2.13;;;;;;;;;;5010397;28;20436;-74
2022/01/21 02:05:36;;;;;;;6.65;2.50;;;;;;;;;;5008673;28;20033;-74
2022/01/21 02:08:01;;;;;;;4.15;2.35;;;;;;;;;;5008653;28;20032;-74
2022/01/21 02:10:26;;;;;;;12.10;2.75;;;;;;;;;;5026257;28;20377;-74
2022/01/21 02:13:01;;;;;;;7.68;2.60;;;;;;;;;;5006644;28;20037;-74
2022/01/21 02:15:27;;;;;;;5.85;2.10;;;;;;;;;;5010165;28;20107;-74
2022/01/21 02:23:21;;;;;;;4.00;2.00;;;;;;;;;;5026912;28;20467;-74
2022/01/21 02:25:46;;;;;;;8.75;2.35;;;;;;;;;;5007207;28;20060;-74
2022/01/21 02:28:15;;;;;;;6.43;2.42;;;;;;;;;;5025784;28;20109;-74
2022/01/21 02:30:51;;;;;;;7.72;2.40;;;;;;;;;;5024938;28;20042;-74
2022/01/21 02:33:17;;;;;;;11.18;2.95;;;;;;;;;;5009506;28;20025;-74
2022/01/21 02:35:42;;;;;;;8.20;2.63;;;;;;;;;;5025533;28;20029;-74
2022/01/21 02:38:07;;;;;;;11.95;2.78;;;;;;;;;;5025809;28;20023;-74
2022/01/21 02:40:33;;;;;;;5.28;2.22;;;;;;;;;;5010330;28;20408;-74
2022/01/21 02:42:58;;;;;;;5.88;2.95;;;;;;;;;;5008694;28;20681;-74
2022/01/21 02:45:23;;;;;;;6.68;2.95;;;;;;;;;;5026359;28;20483;-74
2022/01/21 02:47:49;;;;;;;5.53;2.70;;;;;;;;;;5023261;28;21521;-74
2022/01/21 02:50:16;;;;;;;4.78;2.75;;;;;;;;;;5025659;28;21512;-74
2022/01/21 02:52:54;;;;;;;5.85;2.67;;;;;;;;;;5009416;28;20042;-74
2022/01/21 02:55:19;;;;;;;4.53;2.55;;;;;;;;;;5026005;28;20048;-74
2022/01/21 02:57:44;;;;;;;7.85;3.13;;;;;;;;;;5025189;28;20060;-74
2022/01/21 03:00:10;;;;;;;7.82;3.42;;;;;;;;;;5025277;28;20049;-73
2022/01/21 03:02:35;;;;;;;12.80;3.00;;;;;;;;;;5010420;28;20057;-73
2022/01/21 03:05:06;;;;;;;6.93;3.33;;;;;;;;;;5008988;28;20095;-73
2022/01/21 03:07:32;;;;;;;6.13;3.08;;;;;;;;;;5025789;28;20033;-73
2022/01/21 03:09:57;;;;;;;4.72;1.40;;;;;;;;;;5024619;28;20021;-74
2022/01/21 03:12:22;;;;;;;1.00;0.82;;;;;;;;;;5009699;28;20551;-73
2022/01/21 03:14:48;;;;;;;6.15;1.13;;;;;;;;;;5025582;28;20484;-74
2022/01/21 03:17:13;;;;;;;3.13;1.05;;;;;;;;;;5024200;28;20526;-74
2022/01/21 03:19:39;;;;;;;10.45;1.33;;;;;;;;;;5025910;28;20034;-73
2022/01/21 03:22:05;;;;;;;6.28;1.60;;;;;;;;;;5026386;28;20072;-74
2022/01/21 03:24:30;;;;;;;3.58;1.48;;;;;;;;;;5023704;28;20033;-74
2022/01/21 03:26:58;;;;;;;6.03;2.42;;;;;;;;;;5024822;28;20149;-73
2022/01/21 03:29:23;;;;;;;7.43;1.65;;;;;;;;;;5023401;28;20099;-74
2022/01/21 03:31:48;;;;;;;5.57;1.73;;;;;;;;;;5022528;28;20152;-74
2022/01/21 03:34:14;;;;;;;3.83;1.70;;;;;;;;;;5008612;28;20030;-73
2022/01/21 03:36:40;;;;;;;4.95;1.85;;;;;;;;;;5007996;28;20439;-74
2022/01/21 03:39:05;;;;;;;3.80;2.17;;;;;;;;;;5024703;28;20042;-74
2022/01/21 03:41:31;;;;;;;4.88;2.22;;;;;;;;;;5025455;28;20528;-74
2022/01/21 03:43:56;;;;;;;6.18;2.60;;;;;;;;;;5008288;28;20056;-74
2022/01/21 03:46:21;;;;;;;5.63;2.05;;;;;;;;;;5024350;28;20026;-74
2022/01/21 03:48:49;;;;;;;4.20;2.30;;;;;;;;;;5007554;28;20040;-74
2022/01/21 03:51:14;;;;;;;4.82;2.60;;;;;;;;;;5008991;28;20084;-74
2022/01/21 03:53:40;;;;;;;7.55;2.60;;;;;;;;;;5023329;28;20152;-73
2022/01/21 03:56:05;;;;;;;6.45;3.10;;;;;;;;;;5008928;28;20118;-74
2022/01/21 03:58:30;;;;;;;7.72;3.53;;;;;;;;;;5026070;28;20068;-74
2022/01/21 04:00:56;;;;;;;6.07;2.80;;;;;;;;;;5005701;28;20057;-74
2022/01/21 04:03:22;;;;;;;7.03;2.92;;;;;;;;;;5008775;28;20248;-73
2022/01/21 04:05:47;;;;;;;4.25;2.58;;;;;;;;;;5025544;28;20033;-74
2022/01/21 04:08:13;;;;;;;9.18;3.17;;;;;;;;;;5008335;28;20423;-74
2022/01/21 04:10:41;;;;;;;6.57;3.13;;;;;;;;;;5005526;28;21050;-74
2022/01/21 04:13:17;;;;;;;5.93;3.03;;;;;;;;;;5009331;28;20034;-73
2022/01/21 04:15:44;;;;;;;6.22;2.78;;;;;;;;;;5024207;28;20031;-74
2022/01/21 04:18:10;;;;;;;5.22;2.90;;;;;;;;;;5008876;28;20171;-74
2022/01/21 04:20:35;;;;;;;7.43;2.50;;;;;;;;;;5007155;28;20096;-74
2022/01/21 04:23:01;;;;;;;7.88;3.00;;;;;;;;;;5025694;28;20033;-73
2022/01/21 04:25:26;;;;;;;5.88;2.67;;;;;;;;;;5008196;28;20164;-73
2022/01/21 04:27:51;;;;;;;6.47;2.80;;;;;;;;;;5005451;28;20633;-74
2022/01/21 04:30:17;;;;;;;9.30;2.17;;;;;;;;;;5022679;28;20354;-74
2022/01/21 04:32:42;;;;;;;5.68;2.40;;;;;;;;;;5025354;28;20161;-73
2022/01/21 04:35:08;;;;;;;3.95;2.22;;;;;;;;;;5025613;28;20510;-74
2022/01/21 04:37:38;;;;;;;6.60;2.55;;;;;;;;;;5028681;28;20021;-73
2022/01/21 04:40:11;;;;;;;6.25;3.22;;;;;;;;;;5027857;28;20821;-74
2022/01/21 04:48:05;;;;;;;12.60;3.55;;;;;;;;;;5028175;28;20095;-74
2022/01/21 04:50:39;;;;;;;12.45;3.35;;;;;;;;;;5028350;28;20029;-74
2022/01/21 04:53:05;;;;;;;11.48;3.15;;;;;;;;;;5029196;28;20033;-74
2022/01/21 04:55:30;;;;;;;7.28;3.13;;;;;;;;;;5028165;28;20030;-74
2022/01/21 04:57:56;;;;;;;6.60;2.78;;;;;;;;;;5027808;28;20511;-73
2022/01/21 05:00:21;;;;;;;9.45;2.33;;;;;;;;;;5010455;28;20057;-74
2022/01/21 05:02:46;;;;;;;6.32;2.17;;;;;;;;;;5009560;28;20883;-74
2022/01/21 05:05:12;;;;;;;6.53;2.95;;;;;;;;;;5011735;28;20064;-74
2022/01/21 05:07:39;;;;;;;7.72;2.90;;;;;;;;;;5009530;28;20049;-75
2022/01/21 05:10:05;;;;;;;12.30;3.03;;;;;;;;;;5010535;28;20037;-73
2022/01/21 05:12:30;;;;;;;7.47;3.03;;;;;;;;;;5009087;28;20582;-74
2022/01/21 05:17:22;;;;;;;5.97;2.70;;;;;;;;;;5009161;28;20025;-74
2022/01/21 05:19:47;;;;;;;11.85;3.00;;;;;;;;;;5028725;28;20029;-75
2022/01/21 05:22:13;;;;;;;9.98;2.90;;;;;;;;;;5027692;28;20013;-74
2022/01/21 05:24:38;;;;;;;10.65;3.67;;;;;;;;;;5010360;28;20035;-75
2022/01/21 05:27:05;;;;;;;16.52;3.78;;;;;;;;;;5027274;28;20052;-74
2022/01/21 05:29:32;;;;;;;7.68;3.28;;;;;;;;;;5010096;28;20076;-74
2022/01/21 05:31:58;;;;;;;8.43;3.47;;;;;;;;;;5026113;28;20466;-75
2022/01/21 05:34:23;;;;;;;7.75;3.20;;;;;;;;;;5026717;28;20108;-75
2022/01/21 05:36:49;;;;;;;13.35;3.55;;;;;;;;;;5026134;28;20028;-74
2022/01/21 05:39:15;;;;;;;9.93;3.17;;;;;;;;;;5007707;28;20048;-75
2022/01/21 05:41:44;;;;;;;12.07;3.00;;;;;;;;;;5008522;28;20037;-74
2022/01/21 05:44:16;;;;;;;9.70;2.92;;;;;;;;;;5010365;28;20403;-75
2022/01/21 05:49:07;;;;;;;6.47;2.83;;;;;;;;;;5027206;28;20582;-75
2022/01/21 05:51:32;;;;;;;8.65;2.88;;;;;;;;;;5025123;28;20144;-75
2022/01/21 05:53:58;;;;;;;6.00;2.75;;;;;;;;;;5024630;28;20034;-75
2022/01/21 05:56:25;;;;;;;7.15;3.10;;;;;;;;;;5010788;28;20173;-75
2022/01/21 05:58:51;;;;;;;16.10;4.50;;;;;;;;;;5011027;28;20025;-74
2022/01/21 06:01:16;;;;;;;13.15;4.60;;;;;;;;;;5023382;28;20548;-75
2022/01/21 06:03:41;;;;;;;14.55;5.55;;;;;;;;;;5008053;28;20079;-75
2022/01/21 06:06:06;;;;;;;13.52;5.47;;;;;;;;;;5026360;28;20053;-75
2022/01/21 06:08:32;;;;;;;15.93;5.68;;;;;;;;;;5026316;28;20076;-74
2022/01/21 06:10:57;;;;;;;10.50;4.43;;;;;;;;;;5008480;28;20036;-75
2022/01/21 06:13:22;;;;;;;18.38;3.92;;;;;;;;;;5026281;28;20026;-74
2022/01/21 06:15:48;;;;;;;13.95;4.15;;;;;;;;;;5025941;28;20025;-74
2022/01/21 06:18:13;;;;;;;9.38;3.35;;;;;;;;;;5006528;28;20060;-75
2022/01/21 06:20:39;;;;;;;12.07;3.58;;;;;;;;;;5008246;28;20505;-75
2022/01/21 06:23:04;;;;;;;8.20;3.47;;;;;;;;;;5010488;28;20521;-75
2022/01/21 06:25:29;;;;;;;11.88;4.20;;;;;;;;;;5006367;28;20479;-74
2022/01/21 06:27:55;;;;;;;14.13;4.43;;;;;;;;;;5010485;28;20565;-75
2022/01/21 06:30:20;;;;;;;8.25;3.67;;;;;;;;;;5024496;28;20033;-74
2022/01/21 06:32:45;;;;;;;6.72;3.50;;;;;;;;;;5026244;28;20440;-75
2022/01/21 06:35:11;;;;;;;14.27;3.92;;;;;;;;;;5025340;28;20492;-75
2022/01/21 06:37:36;;;;;;;7.10;3.60;;;;;;;;;;5010012;28;20484;-74
2022/01/21 06:40:03;;;;;;;12.88;4.28;;;;;;;;;;5010292;28;20151;-75
2022/01/21 06:42:30;;;;;;;9.52;3.40;;;;;;;;;;4992446;28;20029;-75
2022/01/21 06:44:55;;;;;;;9.80;4.03;;;;;;;;;;5024372;28;20029;-74
2022/01/21 06:47:20;;;;;;;6.60;3.15;;;;;;;;;;5007706;28;20037;-75
2022/01/21 06:49:46;;;;;;;14.35;3.78;;;;;;;;;;5028271;28;20026;-75
2022/01/21 06:52:12;;;;;;;11.98;4.30;;;;;;;;;;5008241;28;20487;-75
2022/01/21 06:54:37;;;;;;;11.35;4.97;;;;;;;;;;5007285;28;20404;-75
2022/01/21 06:57:02;;;;;;;17.85;7.45;;;;;;;;;;5008049;28;20511;-75
2022/01/21 06:59:28;;;;;;;15.93;5.38;;;;;;;;;;5008016;28;20506;-75
2022/01/21 07:01:53;;;;;;;16.38;5.18;;;;;;;;;;5026472;28;20112;-75
2022/01/21 07:04:18;;;;;;;11.65;4.85;;;;;;;;;;5010430;28;20423;-75
2022/01/21 07:06:44;;;;;;;8.25;3.78;;;;;;;;;;5008941;28;20120;-75
2022/01/21 07:09:12;;;;;;;12.90;4.03;;;;;;;;;;5026724;28;20112;-75
2022/01/21 07:11:37;;;;;;;10.70;3.47;;;;;;;;;;5008985;28;20021;-76
2022/01/21 07:14:03;;;;;;;11.27;4.22;;;;;;;;;;5000660;28;20408;-74
2022/01/21 07:16:28;;;;;;;18.77;4.82;;;;;;;;;;5022190;28;20018;-74
2022/01/21 07:18:53;;;;;;;11.80;3.92;;;;;;;;;;5007103;28;20060;-75
2022/01/21 07:21:19;;;;;;;6.53;3.20;;;;;;;;;;5025775;28;20061;-77
2022/01/21 07:23:44;;;;;;;10.32;3.92;;;;;;;;;;5007730;28;20637;-75
2022/01/21 07:26:10;;;;;;;13.45;4.15;;;;;;;;;;5023991;28;20087;-76
2022/01/21 07:28:35;;;;;;;13.95;4.68;;;;;;;;;;5024176;28;20120;-76
2022/01/21 07:31:01;;;;;;;10.05;5.18;;;;;;;;;;5005235;28;20244;-74
2022/01/21 07:33:26;;;;;;;18.50;6.05;;;;;;;;;;5004620;28;20049;-77
2022/01/21 07:35:51;;;;;;;22.00;6.35;;;;;;;;;;5008156;28;20052;-77
2022/01/21 07:38:17;;;;;;;18.67;5.93;;;;;;;;;;5008665;28;20029;-76
2022/01/21 07:40:42;;;;;;;21.05;6.47;;;;;;;;;;5006267;28;20030;-75
2022/01/21 07:43:08;;;;;;;16.40;5.85;;;;;;;;;;5006097;28;20440;-75
2022/01/21 07:45:33;;;;;;;18.13;5.70;;;;;;;;;;5021941;28;20040;-75
2022/01/21 07:47:59;;;;;;;16.05;5.88;;;;;;;;;;5003625;28;20083;-75
2022/01/21 07:50:24;;;;;;;21.40;5.78;;;;;;;;;;5019593;28;20032;-74
2022/01/21 07:52:49;;;;;;;20.05;7.50;;;;;;;;;;5024144;28;20042;-73
2022/01/21 07:55:15;;;;;;;32.53;10.65;;;;;;;;;;5020539;28;20661;-73
2022/01/21 07:57:40;;;;;;;24.85;8.45;;;;;;;;;;4985188;28;20607;-75
2022/01/21 08:00:06;;;;;;;23.25;6.90;;;;;;;;;;5003512;28;20025;-74
2022/01/21 08:02:32;;;;;;;15.98;6.03;;;;;;;;;;5021420;28;20083;-75
2022/01/21 08:05:01;;;;;;;16.20;4.97;;;;;;;;;;5021783;28;20057;-75
2022/01/21 08:07:26;;;;;;;12.07;4.05;;;;;;;;;;5008606;28;20030;-76
2022/01/21 08:09:53;;;;;;;7.20;3.50;;;;;;;;;;5009113;28;20029;-74
2022/01/21 08:12:18;;;;;;;10.07;3.92;;;;;;;;;;5010526;28;20025;-74
2022/01/21 08:14:44;;;;;;;14.60;3.10;;;;;;;;;;5009306;28;20034;-76
2022/01/21 08:17:09;;;;;;;7.47;3.13;;;;;;;;;;5027142;28;20029;-72
2022/01/21 08:19:34;;;;;;;6.68;2.40;;;;;;;;;;5011032;28;20372;-72
2022/01/21 08:22:00;;;;;;;9.52;2.75;;;;;;;;;;5026342;28;20021;-72
2022/01/21 08:24:25;;;;;;;10.55;3.10;;;;;;;;;;5031241;28;20073;-74
2022/01/21 08:26:50;;;;;;;7.90;3.10;;;;;;;;;;5028840;28;20037;-74
2022/01/21 08:29:16;;;;;;;6.72;3.08;;;;;;;;;;4992376;28;20042;-74
2022/01/21 08:31:42;;;;;;;9.40;2.90;;;;;;;;;;5008031;28;20475;-73
2022/01/21 08:34:07;;;;;;;9.23;3.08;;;;;;;;;;5009724;28;20113;-74
2022/01/21 08:36:32;;;;;;;10.73;3.42;;;;;;;;;;5025986;28;20561;-75
2022/01/21 08:38:58;;;;;;;14.18;3.35;;;;;;;;;;5027754;28;20029;-75
2022/01/21 08:41:23;;;;;;;5.10;2.42;;;;;;;;;;5008097;28;20071;-76
2022/01/21 08:43:49;;;;;;;11.18;3.30;;;;;;;;;;5009926;28;20025;-76
2022/01/21 08:46:14;;;;;;;12.43;2.72;;;;;;;;;;5024421;28;20030;-76
2022/01/21 08:48:39;;;;;;;8.13;2.50;;;;;;;;;;5007666;28;20044;-76
2022/01/21 08:51:13;;;;;;;8.05;2.72;;;;;;;;;;5027162;28;20028;-76
2022/01/21 08:53:41;;;;;;;6.15;2.75;;;;;;;;;;5008945;28;20049;-75
2022/01/21 08:56:08;;;;;;;7.47;3.03;;;;;;;;;;5005118;28;20033;-75
2022/01/21 08:58:34;;;;;;;6.45;2.88;;;;;;;;;;5008066;28;20021;-75
2022/01/21 09:00:59;;;;;;;7.43;2.78;;;;;;;;;;5006943;28;20535;-76
2022/01/21 09:03:24;;;;;;;9.15;2.38;;;;;;;;;;5025776;28;20517;-76
2022/01/21 09:05:51;;;;;;;6.55;2.30;;;;;;;;;;5024414;28;20561;-76
2022/01/21 09:08:19;;;;;;;11.90;2.97;;;;;;;;;;5009382;28;20087;-77
2022/01/21 09:10:45;;;;;;;9.70;3.05;;;;;;;;;;5007522;28;20084;-76
2022/01/21 09:13:10;;;;;;;6.82;2.60;;;;;;;;;;5023874;28;20784;-75
2022/01/21 09:15:36;;;;;;;8.77;2.80;;;;;;;;;;5006954;28;20104;-76
2022/01/21 09:18:04;;;;;;;10.55;2.67;;;;;;;;;;5007267;28;20478;-77
2022/01/21 09:20:32;;;;;;;13.68;2.80;;;;;;;;;;5008809;28;20054;-76
2022/01/21 09:22:57;;;;;;;4.93;2.35;;;;;;;;;;5005604;28;20491;-76
2022/01/21 09:25:22;;;;;;;6.18;2.47;;;;;;;;;;5006618;28;20061;-76
2022/01/21 09:27:48;;;;;;;15.48;3.65;;;;;;;;;;5005633;28;20029;-75
2022/01/21 09:30:13;;;;;;;7.30;2.45;;;;;;;;;;5021423;28;20031;-76
2022/01/21 09:32:39;;;;;;;5.72;2.47;;;;;;;;;;5024999;28;20033;-75
2022/01/21 09:35:04;;;;;;;13.55;2.75;;;;;;;;;;5007382;28;20044;-75
2022/01/21 09:37:30;;;;;;;7.90;2.75;;;;;;;;;;5009105;28;20060;-78
2022/01/21 09:39:55;;;;;;;10.68;2.75;;;;;;;;;;5023397;28;20079;-77
2022/01/21 09:42:20;;;;;;;7.28;2.60;;;;;;;;;;5006149;28;20097;-76
2022/01/21 09:44:46;;;;;;;10.50;2.50;;;;;;;;;;5003925;28;20072;-75
2022/01/21 09:47:14;;;;;;;7.82;2.70;;;;;;;;;;4989513;28;20061;-74
2022/01/21 09:49:41;;;;;;;10.75;2.40;;;;;;;;;;5007721;28;20117;-75
2022/01/21 09:52:11;;;;;;;11.35;2.30;;;;;;;;;;5007420;28;20026;-76
2022/01/21 09:54:43;;;;;;;6.35;2.60;;;;;;;;;;5009211;28;20032;-75
2022/01/21 09:57:08;;;;;;;8.73;2.97;;;;;;;;;;5008979;28;20665;-76
2022/01/21 09:59:35;;;;;;;9.82;2.50;;;;;;;;;;5007043;28;20041;-75
2022/01/21 10:02:05;;;;;;;3.15;2.13;;;;;;;;;;5005681;28;20043;-73
2022/01/21 10:04:33;;;;;;;4.32;2.22;;;;;;;;;;5016627;28;20128;-73
2022/01/21 10:06:58;;;;;;;6.47;2.33;;;;;;;;;;4991846;28;20071;-74
2022/01/21 10:09:24;;;;;;;6.25;2.10;;;;;;;;;;5021418;28;20037;-74
2022/01/21 10:11:50;;;;;;;8.73;2.55;;;;;;;;;;5007188;28;20045;-74
2022/01/21 10:14:16;;;;;;;7.18;2.70;;;;;;;;;;5006858;28;20436;-74
2022/01/21 10:16:46;;;;;;;7.20;2.78;;;;;;;;;;5008543;28;20063;-74
2022/01/21 10:19:11;;;;;;;13.05;2.58;;;;;;;;;;5024103;28;20040;-73
2022/01/21 10:21:38;;;;;;;7.03;2.13;;;;;;;;;;5007938;28;20017;-76
2022/01/21 10:24:16;;;;;;;8.43;3.47;;;;;;;;;;5007806;28;20077;-78
2022/01/21 10:26:50;;;;;;;6.07;2.78;;;;;;;;;;5005718;28;20033;-79
2022/01/21 10:29:15;;;;;;;4.13;2.60;;;;;;;;;;4993085;28;20025;-76
2022/01/21 10:31:58;;;;;;;9.25;3.15;;;;;;;;;;4991765;28;20589;-78
2022/01/21 10:34:44;;;;;;;9.68;3.92;;;;;;;;;;5009212;28;20029;-78
2022/01/21 10:37:21;;;;;;;10.43;3.42;;;;;;;;;;5007833;28;20122;-76
2022/01/21 10:40:02;;;;;;;6.25;3.00;;;;;;;;;;5026160;28;20080;-79
2022/01/21 10:42:28;;;;;;;9.85;2.70;;;;;;;;;;5005958;28;20018;-77
2022/01/21 10:44:53;;;;;;;9.55;3.30;;;;;;;;;;5008367;28;20511;-76
2022/01/21 10:47:18;;;;;;;4.45;2.53;;;;;;;;;;5026509;28;20025;-77
2022/01/21 10:49:56;;;;;;;9.68;2.70;;;;;;;;;;5008303;28;20075;-76
2022/01/21 10:52:29;;;;;;;9.65;2.92;;;;;;;;;;5009125;28;20037;-77
2022/01/21 10:54:54;;;;;;;11.13;3.22;;;;;;;;;;5006270;28;20033;-76
2022/01/21 10:57:20;;;;;;;8.30;2.90;;;;;;;;;;4993362;28;20356;-77
2022/01/21 10:59:53;;;;;;;10.85;3.22;;;;;;;;;;5006177;28;20572;-77
2022/01/21 11:02:36;;;;;;;10.65;3.10;;;;;;;;;;5006849;28;20919;-75
2022/01/21 11:05:08;;;;;;;10.05;2.88;;;;;;;;;;4987666;28;20079;-76
2022/01/21 11:07:46;;;;;;;7.40;2.85;;;;;;;;;;5006794;28;20033;-78
2022/01/21 11:10:43;;;;;;;8.18;2.58;;;;;;;;;;5008693;28;20584;-77
2022/01/21 11:13:20;;;;;;;9.13;2.80;;;;;;;;;;5023382;28;20030;-78
2022/01/21 11:15:48;;;;;;;11.40;2.58;;;;;;;;;;5025324;28;20037;-76
2022/01/21 11:18:16;;;;;;;7.10;2.38;;;;;;;;;;5007525;28;20029;-75
2022/01/21 11:20:42;;;;;;;8.13;2.45;;;;;;;;;;5008040;28;20379;-76
2022/01/21 11:23:08;;;;;;;13.85;4.30;;;;;;;;;;5006439;28;20029;-77
2022/01/21 11:25:44;;;;;;;13.75;4.80;;;;;;;;;;5007960;28;20403;-77
2022/01/21 11:28:10;;;;;;;15.85;5.03;;;;;;;;;;5006379;28;20045;-76
2022/01/21 11:30:35;;;;;;;11.10;2.63;;;;;;;;;;5004261;28;20123;-76
2022/01/21 11:33:00;;;;;;;14.23;4.13;;;;;;;;;;5006134;28;20042;-76
2022/01/21 11:35:27;;;;;;;15.18;4.88;;;;;;;;;;5003507;28;20096;-76
2022/01/21 11:37:52;;;;;;;20.35;5.45;;;;;;;;;;4988433;28;20048;-76
2022/01/21 11:40:18;;;;;;;7.97;2.60;;;;;;;;;;4990071;28;20037;-76
2022/01/21 11:42:43;;;;;;;8.75;4.00;;;;;;;;;;5005395;28;20127;-76
2022/01/21 11:45:30;;;;;;;14.88;3.45;;;;;;;;;;5005034;28;20405;-77
2022/01/21 11:48:50;;;;;;;11.40;5.30;;;;;;;;;;5009422;28;20403;-75
2022/01/21 11:50:56;;;;;;;13.02;3.72;;;;;;;;;;5011301;28;20047;-74
2022/01/21 11:53:43;;;;;;;7.88;3.22;;;;;;;;;;5005431;28;20056;-74
2022/01/21 11:56:31;;;;;;;13.48;3.05;;;;;;;;;;5005373;28;20095;-74
2022/01/21 11:59:37;;;;;;;7.00;2.40;;;;;;;;;;5023164;28;20025;-74
2022/01/21 12:02:14;;;;;;;10.93;2.83;;;;;;;;;;4991131;28;20044;-74
2022/01/21 12:04:45;;;;;;;8.88;2.67;;;;;;;;;;5022808;28;20033;-74
2022/01/21 12:07:36;;;;;;;10.63;2.83;;;;;;;;;;5006076;28;20049;-74
2022/01/21 12:10:07;;;;;;;6.13;2.38;;;;;;;;;;5022043;28;20026;-74
2022/01/21 12:12:45;;;;;;;4.15;2.33;;;;;;;;;;5023304;28;20112;-74
2022/01/21 12:15:21;;;;;;;7.15;2.50;;;;;;;;;;5022033;28;20180;-74
2022/01/21 12:17:52;;;;;;;7.32;2.65;;;;;;;;;;5007044;28;20034;-74
2022/01/21 12:20:17;;;;;;;7.00;2.17;;;;;;;;;;5006795;28;20036;-74
2022/01/21 12:22:43;;;;;;;8.30;2.25;;;;;;;;;;5007571;28;20058;-74
2022/01/21 12:25:09;;;;;;;5.95;2.10;;;;;;;;;;5003709;28;20173;-74
2022/01/21 12:27:36;;;;;;;10.43;2.28;;;;;;;;;;5007207;28;20037;-74
2022/01/21 12:30:23;;;;;;;6.10;2.58;;;;;;;;;;5008176;28;20116;-74
2022/01/21 12:32:57;;;;;;;5.25;2.22;;;;;;;;;;5007076;28;20049;-73
2022/01/21 12:35:22;;;;;;;6.60;2.58;;;;;;;;;;5008066;28;20043;-74
2022/01/21 12:41:01;;;;;;;12.25;2.97;;;;;;;;;;5021868;28;20496;-74
2022/01/21 12:43:39;;;;;;;7.60;2.72;;;;;;;;;;5021198;28;20049;-74
2022/01/21 12:46:06;;;;;;;8.27;2.85;;;;;;;;;;5021998;28;20037;-76
2022/01/21 12:48:34;;;;;;;5.68;3.00;;;;;;;;;;5006032;28;20025;-75
2022/01/21 12:51:13;;;;;;;8.98;3.40;;;;;;;;;;5006118;28;20032;-73
2022/01/21 12:55:54;;;;;;;10.77;3.03;;;;;;;;;;5005063;28;20084;-74
2022/01/21 12:56:23;;;;;;;6.43;3.00;;;;;;;;;;4995411;28;20133;-74
2022/01/21 12:58:49;;;;;;;9.00;2.60;;;;;;;;;;5022897;28;20064;-75
2022/01/21 13:01:15;;;;;;;9.50;3.05;;;;;;;;;;5009510;28;20119;-73
2022/01/21 13:03:43;;;;;;;10.27;3.33;;;;;;;;;;5008934;28;20543;-73
2022/01/21 13:06:36;;;;;;;5.95;2.97;;;;;;;;;;5009583;28;20029;-74
2022/01/21 13:09:02;;;;;;;7.55;2.95;;;;;;;;;;5025751;28;20025;-75
2022/01/21 13:11:29;;;;;;;8.95;2.70;;;;;;;;;;5026487;28;20025;-74
2022/01/21 13:17:05;;;;;;;11.32;2.70;;;;;;;;;;5010765;28;20055;-74
2022/01/21 13:19:49;;;;;;;11.18;2.92;;;;;;;;;;5009804;28;20025;-74
2022/01/21 13:22:22;;;;;;;12.13;2.85;;;;;;;;;;5012110;28;20021;-74
2022/01/21 13:25:04;;;;;;;7.43;2.38;;;;;;;;;;5001710;28;20040;-75
2022/01/21 13:27:30;;;;;;;9.52;2.80;;;;;;;;;;4992488;28;20507;-74
2022/01/21 13:30:07;;;;;;;5.38;2.55;;;;;;;;;;5008907;28;20111;-74
2022/01/21 13:32:32;;;;;;;4.07;2.50;;;;;;;;;;5025361;28;20159;-75
2022/01/21 13:35:21;;;;;;;10.68;2.85;;;;;;;;;;5024342;28;20486;-75
2022/01/21 13:38:08;;;;;;;4.50;2.40;;;;;;;;;;5009999;28;20083;-77
2022/01/21 13:40:39;;;;;;;7.93;2.90;;;;;;;;;;5020121;28;20136;-77
2022/01/21 13:43:06;;;;;;;14.05;3.03;;;;;;;;;;5022364;28;20064;-79
2022/01/21 13:45:32;;;;;;;7.35;2.67;;;;;;;;;;5008507;28;20010;-78
2022/01/21 13:48:02;;;;;;;6.15;2.72;;;;;;;;;;5021785;28;20402;-78
2022/01/21 13:50:27;;;;;;;12.55;2.92;;;;;;;;;;5008205;28;20037;-79
2022/01/21 13:52:54;;;;;;;6.93;2.53;;;;;;;;;;5005813;28;20037;-76
2022/01/21 13:55:25;;;;;;;5.78;2.35;;;;;;;;;;5004740;28;20673;-77
2022/01/21 13:57:51;;;;;;;7.28;2.83;;;;;;;;;;5008462;28;20125;-77
2022/01/21 14:00:25;;;;;;;10.85;2.55;;;;;;;;;;5020674;28;20611;-78
2022/01/21 14:03:10;;;;;;;7.85;2.67;;;;;;;;;;5019276;28;20044;-78
2022/01/21 14:05:51;;;;;;;5.10;2.60;;;;;;;;;;5023606;28;20029;-78
2022/01/21 14:08:26;;;;;;;8.88;2.70;;;;;;;;;;5009365;28;20037;-78
2022/01/21 14:10:58;;;;;;;7.07;2.47;;;;;;;;;;5007637;28;20048;-78
2022/01/21 14:13:27;;;;;;;5.65;2.58;;;;;;;;;;5008534;28;20152;-78
2022/01/21 14:16:00;;;;;;;6.00;2.60;;;;;;;;;;4990899;28;20160;-77
2022/01/21 14:18:30;;;;;;;8.20;2.80;;;;;;;;;;5008513;28;20025;-78
2022/01/21 14:21:03;;;;;;;8.25;3.10;;;;;;;;;;5006475;28;20029;-78
2022/01/21 14:23:31;;;;;;;11.70;3.08;;;;;;;;;;4974996;28;20391;-78
2022/01/21 14:25:57;;;;;;;8.93;2.40;;;;;;;;;;5022270;28;20087;-78
2022/01/21 14:28:45;;;;;;;11.80;2.90;;;;;;;;;;5022881;28;20034;-78
2022/01/21 14:31:25;;;;;;;7.30;2.58;;;;;;;;;;5004775;28;20045;-77
2022/01/21 14:33:51;;;;;;;4.63;2.58;;;;;;;;;;5022193;28;20037;-78
2022/01/21 14:36:16;;;;;;;4.72;2.42;;;;;;;;;;5007343;28;20334;-78
2022/01/21 14:38:48;;;;;;;10.23;3.20;;;;;;;;;;5021693;28;20128;-78
2022/01/21 14:41:21;;;;;;;5.93;2.28;;;;;;;;;;5008382;28;20026;-79
2022/01/21 14:43:54;;;;;;;2.58;2.38;;;;;;;;;;5022952;28;20488;-78
2022/01/21 14:46:26;;;;;;;9.30;2.75;;;;;;;;;;5007146;28;20030;-78
2022/01/21 14:48:59;;;;;;;6.75;2.50;;;;;;;;;;5024292;28;20068;-79
2022/01/21 14:51:35;;;;;;;8.03;2.73;;;;;;;;;;5021078;28;20034;-78
2022/01/21 14:54:25;;;;;;;6.40;2.40;;;;;;;;;;5008370;28;20296;-82
2022/01/21 14:56:57;;;;;;;8.27;3.17;;;;;;;;;;5025062;28;20041;-79
2022/01/21 14:59:22;;;;;;;5.93;2.33;;;;;;;;;;5025013;28;20021;-78
2022/01/21 15:02:04;;;;;;;3.35;2.10;;;;;;;;;;5005779;28;20056;-77
2022/01/21 15:04:38;;;;;;;6.78;2.42;;;;;;;;;;5018059;28;20037;-79
2022/01/21 15:07:17;;;;;;;6.07;2.67;;;;;;;;;;5009395;28;20041;-77
2022/01/21 15:09:48;;;;;;;7.00;2.70;;;;;;;;;;4993272;28;20139;-77
2022/01/21 15:15:27;;;;;;;5.15;2.00;;;;;;;;;;5009127;28;20120;-78
2022/01/21 15:17:53;;;;;;;8.23;2.30;;;;;;;;;;5008099;28;20399;-77
2022/01/21 15:20:23;;;;;;;5.50;2.67;;;;;;;;;;5021846;28;20024;-78
2022/01/21 15:22:48;;;;;;;7.72;2.63;;;;;;;;;;5003057;28;20036;-77
2022/01/21 15:25:13;;;;;;;6.38;2.20;;;;;;;;;;5022019;28;20025;-76
2022/01/21 15:27:41;;;;;;;8.77;2.63;;;;;;;;;;5008706;28;20290;-77
2022/01/21 15:30:07;;;;;;;5.50;2.65;;;;;;;;;;4999311;28;20055;-78
2022/01/21 15:32:35;;;;;;;7.78;2.58;;;;;;;;;;4989974;28;20654;-77
2022/01/21 15:35:00;;;;;;;5.70;2.30;;;;;;;;;;4989650;28;20074;-76
2022/01/21 15:37:25;;;;;;;6.32;2.15;;;;;;;;;;4996257;28;20029;-78
2022/01/21 15:39:51;;;;;;;6.85;2.50;;;;;;;;;;5007498;28;20025;-77
2022/01/21 15:42:16;;;;;;;4.53;2.53;;;;;;;;;;5008037;28;20026;-77
2022/01/21 15:44:41;;;;;;;8.90;2.70;;;;;;;;;;5003740;28;20033;-77
2022/01/21 15:47:07;;;;;;;3.78;2.38;;;;;;;;;;5004553;28;20025;-77